createdAt,value
2023-02-26T00:01:29.703Z,6.30
2023-02-26T00:04:01.135Z,1.80
2023-02-26T00:06:31.280Z,3.97
2023-02-26T00:08:58.356Z,4.37
2023-02-26T00:11:25.468Z,2.00
2023-02-26T00:13:52.717Z,3.10
2023-02-26T00:16:36.301Z,3.90
2023-02-26T00:19:06.439Z,2.47
2023-02-26T00:21:35.461Z,3.17
2023-02-26T00:24:02.555Z,3.73
2023-02-26T00:26:31.771Z,3.63
2023-02-26T00:28:59.483Z,2.43
2023-02-26T00:31:27.415Z,2.20
2023-02-26T00:33:56.931Z,2.40
2023-02-26T00:36:35.846Z,3.73
2023-02-26T00:39:29.006Z,6.50
2023-02-26T00:41:56.336Z,3.53
2023-02-26T00:44:23.544Z,3.30
2023-02-26T00:47:22.143Z,4.40
2023-02-26T00:50:21.451Z,3.03
2023-02-26T00:53:17.687Z,2.23
2023-02-26T00:55:44.556Z,3.00
2023-02-26T00:58:11.530Z,2.90
2023-02-26T01:00:38.429Z,4.67
2023-02-26T01:03:05.700Z,1.50
2023-02-26T01:05:32.919Z,1.63
2023-02-26T01:08:16.127Z,3.70
2023-02-26T01:10:43.263Z,1.60
2023-02-26T01:13:10.350Z,3.07
2023-02-26T01:15:37.600Z,9.97
2023-02-26T01:18:18.442Z,4.03
2023-02-26T01:20:51.757Z,2.77
2023-02-26T01:23:25.288Z,3.00
2023-02-26T01:26:04.038Z,5.70
2023-02-26T01:28:31.669Z,3.70
2023-02-26T01:31:05.240Z,3.97
2023-02-26T01:33:44.476Z,2.80
2023-02-26T01:36:25.276Z,6.13
2023-02-26T01:39:05.041Z,2.03
2023-02-26T01:41:48.151Z,3.57
2023-02-26T01:44:32.072Z,1.70
2023-02-26T01:47:20.374Z,2.93
2023-02-26T01:49:47.717Z,3.67
2023-02-26T01:52:32.527Z,10.60
2023-02-26T01:55:01.211Z,7.10
2023-02-26T01:57:28.125Z,2.00
2023-02-26T01:59:55.023Z,2.17
2023-02-26T02:02:25.595Z,2.03
2023-02-26T02:04:53.400Z,4.97
2023-02-26T02:07:20.312Z,8.27
2023-02-26T02:09:47.621Z,7.97
2023-02-26T02:12:41.978Z,1.77
2023-02-26T02:15:30.943Z,5.23
2023-02-26T02:18:16.876Z,4.60
2023-02-26T02:21:23.742Z,5.00
2023-02-26T02:24:05.449Z,3.40
2023-02-26T02:26:56.246Z,3.23
2023-02-26T02:29:50.307Z,4.90
2023-02-26T02:32:47.350Z,2.00
2023-02-26T02:35:42.076Z,2.10
2023-02-26T02:38:17.169Z,4.60
2023-02-26T02:40:49.789Z,3.10
2023-02-26T02:43:20.671Z,4.20
2023-02-26T02:45:51.643Z,5.40
2023-02-26T02:49:01.279Z,3.30
2023-02-26T02:51:51.627Z,2.50
2023-02-26T02:54:34.791Z,4.00
2023-02-26T02:57:10.951Z,2.90
2023-02-26T02:59:45.334Z,3.60
2023-02-26T03:02:28.829Z,2.27
2023-02-26T03:04:55.800Z,3.77
2023-02-26T03:07:22.837Z,2.80
2023-02-26T03:09:52.609Z,3.67
2023-02-26T03:12:19.943Z,14.77
2023-02-26T03:14:47.165Z,5.50
2023-02-26T03:17:45.647Z,2.00
2023-02-26T03:20:30.490Z,5.63
2023-02-26T03:23:16.683Z,1.40
2023-02-26T03:26:11.818Z,1.97
2023-02-26T03:28:52.142Z,3.43
2023-02-26T03:31:32.123Z,2.73
2023-02-26T03:34:14.271Z,4.53
2023-02-26T03:36:49.058Z,9.93
2023-02-26T03:39:38.064Z,5.83
2023-02-26T03:42:24.585Z,2.60
2023-02-26T03:45:25.599Z,3.10
2023-02-26T03:47:54.998Z,2.97
2023-02-26T03:50:33.905Z,3.13
2023-02-26T03:53:32.185Z,1.90
2023-02-26T03:56:31.362Z,3.83
2023-02-26T03:59:30.725Z,2.23
2023-02-26T04:02:17.293Z,3.30
2023-02-26T04:04:56.035Z,4.50
2023-02-26T04:07:23.222Z,3.77
2023-02-26T04:09:52.129Z,3.10
2023-02-26T04:12:24.189Z,6.00
2023-02-26T04:14:53.369Z,8.20
2023-02-26T04:17:20.306Z,1.93
2023-02-26T04:19:47.228Z,4.90
2023-02-26T04:22:14.334Z,5.20
2023-02-26T04:24:41.428Z,1.50
2023-02-26T04:27:08.502Z,4.10
2023-02-26T04:29:35.436Z,7.37
2023-02-26T04:32:02.446Z,4.93
2023-02-26T04:34:29.565Z,3.53
2023-02-26T04:36:56.953Z,6.23
2023-02-26T04:39:23.956Z,3.57
2023-02-26T04:41:50.935Z,2.17
2023-02-26T04:44:17.862Z,6.50
2023-02-26T04:46:44.814Z,3.53
2023-02-26T04:49:12.545Z,2.97
2023-02-26T04:51:43.193Z,9.73
2023-02-26T04:54:11.921Z,1.87
2023-02-26T04:56:38.809Z,3.17
2023-02-26T04:59:05.745Z,5.27
2023-02-26T05:01:32.702Z,7.13
2023-02-26T05:03:59.971Z,5.10
2023-02-26T05:06:27.177Z,3.00
2023-02-26T05:08:54.250Z,4.30
2023-02-26T05:11:21.259Z,1.77
2023-02-26T05:13:48.325Z,3.10
2023-02-26T05:16:15.550Z,3.43
2023-02-26T05:18:42.611Z,1.70
2023-02-26T05:21:09.562Z,6.53
2023-02-26T05:23:37.671Z,6.00
2023-02-26T05:26:04.698Z,2.57
2023-02-26T05:28:33.804Z,5.70
2023-02-26T05:31:01.374Z,4.93
2023-02-26T05:33:28.362Z,3.07
2023-02-26T05:35:55.294Z,4.00
2023-02-26T05:38:22.185Z,4.67
2023-02-26T05:40:49.225Z,2.97
2023-02-26T05:43:16.160Z,3.57
2023-02-26T05:45:43.068Z,3.93
2023-02-26T05:48:11.167Z,5.03
2023-02-26T05:50:38.077Z,1.87
2023-02-26T05:53:05.037Z,2.67
2023-02-26T05:55:32.193Z,2.03
2023-02-26T05:57:59.102Z,2.33
2023-02-26T06:00:26.509Z,5.30
2023-02-26T06:02:53.435Z,6.23
2023-02-26T06:05:20.419Z,2.53
2023-02-26T06:07:47.660Z,2.43
2023-02-26T06:10:14.744Z,2.30
2023-02-26T06:12:41.661Z,3.07
2023-02-26T06:15:09.664Z,4.17
2023-02-26T06:17:39.605Z,3.03
2023-02-26T06:20:08.547Z,4.20
2023-02-26T06:22:35.471Z,3.63
2023-02-26T06:25:02.728Z,1.57
2023-02-26T06:27:29.653Z,1.90
2023-02-26T06:29:56.643Z,1.70
2023-02-26T06:32:23.643Z,6.93
2023-02-26T06:34:50.549Z,6.60
2023-02-26T06:37:17.410Z,3.87
2023-02-26T06:39:44.291Z,3.37
2023-02-26T06:42:11.171Z,3.90
2023-02-26T06:44:38.119Z,2.33
2023-02-26T06:47:05.385Z,4.17
2023-02-26T06:49:32.532Z,3.53
2023-02-26T06:51:59.492Z,3.77
2023-02-26T06:54:26.441Z,5.73
2023-02-26T06:56:57.608Z,4.37
2023-02-26T06:59:24.866Z,3.60
2023-02-26T07:01:51.920Z,3.47
2023-02-26T07:04:20.659Z,3.53
2023-02-26T07:06:47.769Z,2.77
2023-02-26T07:09:14.682Z,2.30
2023-02-26T07:11:41.624Z,4.00
2023-02-26T07:14:08.497Z,2.40
2023-02-26T07:16:35.544Z,3.07
2023-02-26T07:19:02.449Z,6.13
2023-02-26T07:21:29.358Z,4.80
2023-02-26T07:23:56.249Z,2.20
2023-02-26T07:26:23.357Z,3.53
2023-02-26T07:28:50.338Z,3.23
2023-02-26T07:31:17.365Z,2.03
2023-02-26T07:33:44.291Z,4.83
2023-02-26T07:36:11.183Z,3.50
2023-02-26T07:38:38.106Z,2.40
2023-02-26T07:41:05.147Z,4.07
2023-02-26T07:43:32.036Z,4.63
2023-02-26T07:45:58.972Z,4.70
2023-02-26T07:48:25.945Z,3.50
2023-02-26T07:50:53.740Z,4.33
2023-02-26T07:53:21.562Z,4.00
2023-02-26T07:55:48.462Z,6.13
2023-02-26T07:58:15.342Z,3.33
2023-02-26T08:00:42.475Z,3.93
2023-02-26T08:03:09.384Z,2.30
2023-02-26T08:05:36.623Z,2.07
2023-02-26T08:08:03.573Z,3.80
2023-02-26T08:10:30.970Z,2.60
2023-02-26T08:12:57.837Z,3.00
2023-02-26T08:15:25.021Z,7.90
2023-02-26T08:17:55.094Z,2.80
2023-02-26T08:20:22.021Z,5.80
2023-02-26T08:22:50.622Z,2.60
2023-02-26T08:25:17.951Z,3.70
2023-02-26T08:27:45.139Z,3.60
2023-02-26T08:30:12.604Z,15.03
2023-02-26T08:32:40.013Z,5.50
2023-02-26T08:35:07.188Z,4.23
2023-02-26T08:37:34.135Z,5.60
2023-02-26T08:40:01.028Z,2.57
2023-02-26T08:42:28.024Z,1.80
2023-02-26T08:44:54.943Z,7.40
2023-02-26T08:47:28.769Z,3.97
2023-02-26T08:49:56.465Z,4.40
2023-02-26T08:52:23.647Z,5.57
2023-02-26T08:54:50.811Z,7.70
2023-02-26T08:57:17.990Z,5.77
2023-02-26T08:59:44.891Z,6.70
2023-02-26T09:02:12.703Z,2.93
2023-02-26T09:04:40.004Z,4.33
2023-02-26T09:07:06.953Z,2.80
2023-02-26T09:09:33.844Z,3.60
2023-02-26T09:12:00.809Z,3.47
2023-02-26T09:14:27.746Z,5.00
2023-02-26T09:16:54.642Z,6.63
2023-02-26T09:19:21.663Z,4.67
2023-02-26T09:21:48.541Z,3.10
2023-02-26T09:24:15.429Z,2.23
2023-02-26T09:26:42.379Z,3.20
2023-02-26T09:29:09.630Z,6.40
2023-02-26T09:31:36.706Z,2.37
2023-02-26T09:34:03.650Z,4.63
2023-02-26T09:36:31.458Z,2.87
2023-02-26T09:38:58.345Z,4.00
2023-02-26T09:41:37.906Z,4.53
2023-02-26T09:44:33.179Z,4.10
2023-02-26T09:47:20.820Z,2.70
2023-02-26T09:50:06.195Z,5.37
2023-02-26T09:52:51.739Z,2.60
2023-02-26T09:55:35.153Z,6.90
2023-02-26T09:58:13.326Z,3.00
2023-02-26T10:00:54.531Z,2.13
2023-02-26T10:03:26.759Z,6.37
2023-02-26T10:06:13.751Z,3.33
2023-02-26T10:09:14.160Z,4.20
2023-02-26T10:12:04.799Z,3.00
2023-02-26T10:15:01.557Z,4.10
2023-02-26T10:17:52.936Z,3.30
2023-02-26T10:20:50.054Z,3.37
2023-02-26T10:23:39.241Z,3.60
2023-02-26T10:26:17.742Z,2.80
2023-02-26T10:28:51.554Z,3.30
2023-02-26T10:31:30.202Z,2.83
2023-02-26T10:34:30.914Z,2.73
2023-02-26T10:37:19.557Z,4.67
2023-02-26T10:39:56.956Z,3.90
2023-02-26T10:42:33.941Z,3.97
2023-02-26T10:45:27.958Z,3.57
2023-02-26T10:48:50.010Z,4.03
2023-02-26T10:51:28.191Z,3.53
2023-02-26T10:54:01.166Z,2.07
2023-02-26T10:56:34.494Z,3.67
2023-02-26T10:59:01.443Z,1.70
2023-02-26T11:01:30.955Z,2.50
2023-02-26T11:04:07.175Z,2.57
2023-02-26T11:06:40.428Z,2.27
2023-02-26T11:09:44.472Z,4.17
2023-02-26T11:12:11.287Z,4.17
2023-02-26T11:14:38.777Z,5.63
2023-02-26T11:17:14.928Z,2.97
2023-02-26T11:19:53.599Z,7.33
2023-02-26T11:22:22.311Z,3.37
2023-02-26T11:24:51.141Z,3.70
2023-02-26T11:27:27.360Z,2.77
2023-02-26T11:29:58.571Z,5.00
2023-02-26T11:32:35.964Z,4.80
2023-02-26T11:35:08.078Z,2.77
2023-02-26T11:37:39.293Z,4.03
2023-02-26T11:40:15.837Z,2.50
2023-02-26T11:42:56.040Z,4.83
2023-02-26T11:45:23.282Z,6.93
2023-02-26T11:48:02.237Z,6.33
2023-02-26T11:50:30.768Z,2.57
2023-02-26T11:53:08.302Z,3.27
2023-02-26T11:55:44.522Z,2.63
2023-02-26T11:58:22.973Z,4.10
2023-02-26T12:00:53.200Z,3.50
2023-02-26T12:03:30.803Z,1.90
2023-02-26T12:06:02.249Z,3.23
2023-02-26T12:08:39.020Z,4.00
2023-02-26T12:11:46.402Z,3.43
2023-02-26T12:14:51.169Z,3.57
2023-02-26T12:17:23.542Z,5.93
2023-02-26T12:20:24.823Z,5.00
2023-02-26T12:23:31.202Z,2.50
2023-02-26T12:26:28.806Z,2.97
2023-02-26T12:29:10.468Z,2.90
2023-02-26T12:32:35.944Z,4.97
2023-02-26T12:35:41.542Z,5.63
2023-02-26T12:38:26.119Z,4.10
2023-02-26T12:41:10.918Z,3.07
2023-02-26T12:43:51.500Z,2.80
2023-02-26T12:47:19.938Z,2.43
2023-02-26T12:50:08.150Z,3.13
2023-02-26T12:52:56.151Z,5.33
2023-02-26T12:55:55.638Z,4.23
2023-02-26T12:58:47.666Z,2.80
2023-02-26T13:01:56.019Z,4.63
2023-02-26T13:05:09.404Z,3.83
2023-02-26T13:08:18.193Z,2.20
2023-02-26T13:10:57.383Z,4.87
2023-02-26T13:13:58.174Z,9.50
2023-02-26T13:16:40.206Z,3.20
2023-02-26T13:19:44.618Z,4.30
2023-02-26T13:23:03.962Z,3.17
2023-02-26T13:25:39.217Z,4.17
2023-02-26T13:28:42.260Z,8.80
2023-02-26T13:31:27.562Z,2.30
2023-02-26T13:33:59.142Z,4.90
2023-02-26T13:36:29.178Z,4.77
2023-02-26T13:39:36.049Z,2.93
2023-02-26T13:42:26.078Z,2.10
2023-02-26T13:45:07.950Z,3.63
2023-02-26T13:47:58.542Z,2.13
2023-02-26T13:51:05.931Z,2.17
2023-02-26T13:53:38.856Z,4.73
2023-02-26T13:56:17.550Z,1.67
2023-02-26T13:59:03.617Z,3.23
2023-02-26T14:01:54.463Z,5.30
2023-02-26T14:04:22.335Z,2.33
2023-02-26T14:07:10.916Z,3.63
2023-02-26T14:09:54.757Z,3.07
2023-02-26T14:12:37.619Z,2.40
2023-02-26T14:15:13.568Z,2.90
2023-02-26T14:18:03.281Z,2.50
2023-02-26T14:20:34.786Z,2.53
2023-02-26T14:23:11.917Z,2.47
2023-02-26T14:25:52.743Z,3.73
2023-02-26T14:28:25.310Z,3.10
2023-02-26T14:31:11.030Z,3.80
2023-02-26T14:33:46.304Z,3.00
2023-02-26T14:36:30.980Z,2.40
2023-02-26T14:39:01.395Z,2.43
2023-02-26T14:41:36.615Z,5.73
2023-02-26T14:44:18.130Z,2.93
2023-02-26T14:46:45.602Z,2.30
2023-02-26T14:49:31.534Z,2.63
2023-02-26T14:52:29.033Z,1.93
2023-02-26T14:55:28.395Z,2.37
2023-02-26T14:58:35.659Z,5.30
2023-02-26T15:01:28.996Z,2.70
2023-02-26T15:04:47.320Z,2.47
2023-02-26T15:07:48.107Z,3.37
2023-02-26T15:10:26.601Z,3.50
2023-02-26T15:13:19.660Z,4.20
2023-02-26T15:15:54.098Z,3.73
2023-02-26T15:18:48.883Z,3.17
2023-02-26T15:21:30.472Z,4.33
2023-02-26T15:23:59.618Z,1.87
2023-02-26T15:26:30.726Z,1.83
2023-02-26T15:28:59.836Z,2.27
2023-02-26T15:31:50.577Z,2.03
2023-02-26T15:34:20.110Z,2.63
2023-02-26T15:36:53.098Z,2.40
2023-02-26T15:39:23.811Z,1.83
2023-02-26T15:41:54.214Z,4.27
2023-02-26T15:44:32.115Z,3.30
2023-02-26T15:47:03.469Z,2.57
2023-02-26T15:49:40.953Z,4.87
2023-02-26T15:52:12.769Z,5.20
2023-02-26T15:54:44.774Z,5.77
2023-02-26T15:57:13.609Z,5.63
2023-02-26T15:59:46.545Z,2.20
2023-02-26T16:02:35.488Z,3.80
2023-02-26T16:05:03.913Z,3.13
2023-02-26T16:07:30.868Z,2.73
2023-02-26T16:10:05.773Z,2.90
2023-02-26T16:12:43.648Z,2.43
2023-02-26T16:15:28.442Z,2.10
2023-02-26T16:17:56.361Z,3.90
2023-02-26T16:20:27.082Z,5.73
2023-02-26T16:23:05.904Z,7.10
2023-02-26T16:25:42.067Z,7.50
2023-02-26T16:28:21.050Z,8.63
2023-02-26T16:30:54.204Z,9.47
2023-02-26T16:33:25.112Z,13.77
2023-02-26T16:36:10.113Z,9.17
2023-02-26T16:38:49.721Z,19.80
2023-02-26T16:41:21.528Z,10.17
2023-02-26T16:43:57.629Z,5.50
2023-02-26T16:46:43.497Z,3.20
2023-02-26T16:49:23.695Z,2.90
2023-02-26T16:51:51.822Z,6.27
2023-02-26T16:54:27.210Z,3.40
2023-02-26T16:57:16.390Z,1.87
2023-02-26T16:59:51.594Z,2.53
2023-02-26T17:02:35.088Z,5.07
2023-02-26T17:05:22.459Z,7.70
2023-02-26T17:07:58.309Z,7.97
2023-02-26T17:10:34.314Z,6.03
2023-02-26T17:13:17.296Z,8.03
2023-02-26T17:15:47.124Z,6.00
2023-02-26T17:18:14.557Z,6.37
2023-02-26T17:20:41.756Z,6.23
2023-02-26T17:23:09.545Z,5.47
2023-02-26T17:25:41.986Z,6.17
2023-02-26T17:28:15.659Z,6.03
2023-02-26T17:30:42.582Z,4.03
2023-02-26T17:33:13.562Z,6.77
2023-02-26T17:35:41.234Z,4.00
2023-02-26T17:38:13.256Z,5.23
2023-02-26T17:40:42.411Z,4.30
2023-02-26T17:43:10.120Z,4.33
2023-02-26T17:45:40.182Z,3.10
2023-02-26T17:48:08.638Z,3.20
2023-02-26T17:50:43.830Z,5.20
2023-02-26T17:53:10.851Z,4.37
2023-02-26T17:55:39.442Z,7.63
2023-02-26T17:58:30.506Z,5.97
2023-02-26T18:00:58.009Z,10.23
2023-02-26T18:03:24.932Z,12.50
2023-02-26T18:05:54.637Z,16.70
2023-02-26T18:08:26.603Z,8.87
2023-02-26T18:10:54.612Z,8.80
2023-02-26T18:13:21.950Z,9.70
2023-02-26T18:15:50.403Z,12.90
2023-02-26T18:18:18.558Z,12.00
2023-02-26T18:20:46.118Z,17.33
2023-02-26T18:23:13.848Z,21.00
2023-02-26T18:25:42.301Z,11.17
2023-02-26T18:28:20.545Z,16.60
2023-02-26T18:30:48.538Z,17.00
2023-02-26T18:33:18.777Z,14.90
2023-02-26T18:35:50.032Z,19.43
2023-02-26T18:38:19.850Z,15.57
2023-02-26T18:40:47.710Z,17.20
2023-02-26T18:43:14.849Z,14.37
2023-02-26T18:45:44.134Z,9.47
2023-02-26T18:48:15.851Z,12.03
2023-02-26T18:50:44.522Z,12.37
2023-02-26T18:53:11.931Z,11.73
2023-02-26T18:55:39.049Z,10.00
2023-02-26T18:58:05.950Z,23.97
2023-02-26T19:00:32.798Z,32.23
2023-02-26T19:02:59.647Z,25.43
2023-02-26T19:05:27.139Z,26.83
2023-02-26T19:07:54.722Z,27.27
2023-02-26T19:10:22.332Z,29.27
2023-02-26T19:12:50.792Z,16.80
2023-02-26T19:15:18.245Z,15.57
2023-02-26T19:17:45.352Z,24.37
2023-02-26T19:20:13.534Z,15.00
2023-02-26T19:22:41.833Z,17.20
2023-02-26T19:25:09.968Z,12.80
2023-02-26T19:27:37.457Z,11.47
2023-02-26T19:30:06.138Z,15.03
2023-02-26T19:32:33.164Z,16.73
2023-02-26T19:35:00.237Z,12.80
2023-02-26T19:37:27.113Z,18.83
2023-02-26T19:39:53.979Z,14.10
2023-02-26T19:42:20.980Z,14.20
2023-02-26T19:44:47.834Z,11.80
2023-02-26T19:47:14.676Z,11.10
2023-02-26T19:49:41.524Z,14.80
2023-02-26T19:52:08.607Z,12.10
2023-02-26T19:54:35.579Z,18.70
2023-02-26T19:57:02.428Z,10.30
2023-02-26T19:59:29.459Z,10.10
2023-02-26T20:01:56.476Z,13.83
2023-02-26T20:04:23.373Z,11.87
2023-02-26T20:06:50.623Z,8.23
2023-02-26T20:09:19.010Z,14.43
2023-02-26T20:11:46.085Z,14.20
2023-02-26T20:14:12.967Z,12.77
2023-02-26T20:16:39.816Z,14.07
2023-02-26T20:19:06.945Z,15.93
2023-02-26T20:21:34.011Z,14.57
2023-02-26T20:24:00.876Z,14.80
2023-02-26T20:26:27.759Z,11.90
2023-02-26T20:28:54.630Z,19.03
2023-02-26T20:31:21.600Z,16.27
2023-02-26T20:33:48.511Z,14.80
2023-02-26T20:36:15.363Z,11.50
2023-02-26T20:38:42.869Z,12.00
2023-02-26T20:41:10.262Z,11.50
2023-02-26T20:43:37.272Z,12.20
2023-02-26T20:46:04.477Z,13.10
2023-02-26T20:48:32.983Z,11.90
2023-02-26T20:51:02.533Z,12.83
2023-02-26T20:53:29.403Z,8.40
2023-02-26T20:55:56.867Z,12.97
2023-02-26T20:58:25.659Z,14.33
2023-02-26T21:00:56.496Z,11.07
2023-02-26T21:03:23.948Z,8.97
2023-02-26T21:05:51.314Z,5.80
2023-02-26T21:08:18.186Z,10.30
2023-02-26T21:10:45.280Z,8.20
2023-02-26T21:13:12.135Z,8.80
2023-02-26T21:15:38.978Z,12.70
2023-02-26T21:18:05.836Z,13.17
2023-02-26T21:20:32.757Z,13.53
2023-02-26T21:22:59.613Z,8.50
2023-02-26T21:25:27.385Z,9.57
2023-02-26T21:27:54.284Z,9.00
2023-02-26T21:30:23.201Z,6.40
2023-02-26T21:32:50.704Z,9.27
2023-02-26T21:35:17.960Z,7.50
2023-02-26T21:37:45.489Z,9.47
2023-02-26T21:40:15.759Z,8.30
2023-02-26T21:42:43.114Z,6.40
2023-02-26T21:45:11.097Z,6.43
2023-02-26T21:47:37.997Z,7.13
2023-02-26T21:50:06.795Z,5.63
2023-02-26T21:52:33.773Z,10.30
2023-02-26T21:55:00.770Z,10.13
2023-02-26T21:57:28.058Z,6.40
2023-02-26T21:59:55.078Z,8.40
2023-02-26T22:02:22.054Z,5.83
2023-02-26T22:04:48.973Z,8.73
2023-02-26T22:07:15.908Z,6.87
2023-02-26T22:09:46.179Z,7.63
2023-02-26T22:12:13.873Z,10.23
2023-02-26T22:14:40.791Z,12.20
2023-02-26T22:17:07.669Z,9.70
2023-02-26T22:19:34.641Z,6.50
2023-02-26T22:22:01.540Z,8.73
2023-02-26T22:24:28.601Z,7.00
2023-02-26T22:26:55.463Z,7.40
2023-02-26T22:29:24.067Z,5.87
2023-02-26T22:31:51.076Z,8.63
2023-02-26T22:34:18.111Z,3.60
2023-02-26T22:36:45.118Z,3.50
2023-02-26T22:39:13.199Z,6.67
2023-02-26T22:41:40.184Z,5.57
2023-02-26T22:44:07.162Z,5.63
2023-02-26T22:46:34.248Z,6.57
2023-02-26T22:49:01.216Z,4.87
2023-02-26T22:51:29.816Z,5.87
2023-02-26T22:53:56.734Z,6.40
2023-02-26T22:56:23.599Z,3.50
2023-02-26T22:58:50.449Z,16.17
2023-02-26T23:01:17.932Z,4.20
2023-02-26T23:03:44.942Z,5.93
2023-02-26T23:06:12.076Z,4.43
2023-02-26T23:08:39.099Z,9.13
2023-02-26T23:11:07.105Z,6.50
2023-02-26T23:13:35.518Z,5.83
2023-02-26T23:16:05.559Z,5.90
2023-02-26T23:18:32.978Z,9.20
2023-02-26T23:21:00.800Z,5.63
2023-02-26T23:23:27.642Z,3.97
2023-02-26T23:25:54.752Z,4.10
2023-02-26T23:28:24.198Z,6.00
2023-02-26T23:30:52.174Z,5.50
2023-02-26T23:33:19.082Z,8.27
2023-02-26T23:35:45.951Z,3.83
2023-02-26T23:38:12.830Z,4.50
2023-02-26T23:40:39.763Z,4.37
2023-02-26T23:43:06.643Z,2.97
2023-02-26T23:45:33.552Z,10.17
2023-02-26T23:48:00.438Z,8.83
2023-02-26T23:50:27.330Z,8.13
2023-02-26T23:52:54.228Z,7.37
2023-02-26T23:55:21.487Z,11.70
2023-02-26T23:57:48.374Z,16.30
